createdAt,value
2018-06-12T00:01:21.956Z,3.80
2018-06-12T00:03:50.231Z,3.93
2018-06-12T00:06:18.597Z,3.40
2018-06-12T00:08:46.884Z,3.63
2018-06-12T00:11:15.289Z,3.80
2018-06-12T00:13:43.563Z,3.60
2018-06-12T00:16:11.875Z,3.80
2018-06-12T00:18:39.875Z,3.50
2018-06-12T00:21:08.163Z,3.73
2018-06-12T00:23:36.501Z,3.67
2018-06-12T00:26:04.873Z,3.80
2018-06-12T00:28:33.255Z,4.50
2018-06-12T00:31:01.596Z,3.97
2018-06-12T00:33:29.872Z,4.13
2018-06-12T00:35:58.179Z,4.67
2018-06-12T00:38:26.176Z,4.47
2018-06-12T00:40:54.499Z,4.40
2018-06-12T00:43:22.781Z,4.53
2018-06-12T00:45:51.067Z,4.93
2018-06-12T00:48:19.351Z,4.63
2018-06-12T00:50:47.615Z,5.00
2018-06-12T00:53:15.938Z,5.33
2018-06-12T00:55:44.219Z,4.97
2018-06-12T00:58:12.519Z,5.60
2018-06-12T01:00:40.805Z,5.20
2018-06-12T01:03:09.101Z,5.07
2018-06-12T01:05:37.356Z,5.33
2018-06-12T01:08:05.646Z,5.67
2018-06-12T01:10:33.925Z,4.70
2018-06-12T01:13:02.264Z,5.33
2018-06-12T01:15:30.495Z,5.00
2018-06-12T01:17:58.479Z,4.73
2018-06-12T01:20:26.484Z,4.93
2018-06-12T01:22:54.742Z,5.77
2018-06-12T01:25:22.991Z,5.00
2018-06-12T01:27:51.307Z,5.07
2018-06-12T01:30:19.580Z,5.13
2018-06-12T01:32:47.884Z,4.97
2018-06-12T01:35:16.197Z,5.00
2018-06-12T01:37:44.478Z,5.30
2018-06-12T01:40:12.470Z,5.33
2018-06-12T01:42:40.709Z,5.33
2018-06-12T01:45:08.964Z,5.23
2018-06-12T01:47:37.237Z,5.30
2018-06-12T01:50:05.573Z,5.50
2018-06-12T01:52:33.856Z,5.43
2018-06-12T01:55:02.144Z,5.50
2018-06-12T01:57:30.384Z,4.73
2018-06-12T01:59:58.422Z,5.40
2018-06-12T02:02:26.737Z,4.77
2018-06-12T02:04:55.051Z,5.37
2018-06-12T02:07:23.377Z,5.87
2018-06-12T02:09:51.375Z,5.30
2018-06-12T02:12:19.681Z,5.40
2018-06-12T02:14:48.015Z,5.33
2018-06-12T02:17:16.016Z,5.60
2018-06-12T02:19:44.291Z,5.30
2018-06-12T02:22:12.577Z,5.57
2018-06-12T02:24:40.827Z,5.07
2018-06-12T02:27:09.111Z,5.43
2018-06-12T02:29:37.411Z,5.20
2018-06-12T02:32:05.729Z,5.43
2018-06-12T02:34:34.027Z,5.80
2018-06-12T02:37:02.321Z,5.43
2018-06-12T02:39:30.640Z,5.63
2018-06-12T02:41:58.917Z,5.77
2018-06-12T02:44:27.224Z,5.43
2018-06-12T02:46:55.569Z,5.50
2018-06-12T02:49:23.851Z,5.60
2018-06-12T02:51:52.144Z,5.83
2018-06-12T02:54:20.437Z,5.70
2018-06-12T02:56:48.702Z,6.10
2018-06-12T02:59:17.091Z,5.77
2018-06-12T03:01:45.373Z,6.30
2018-06-12T03:04:13.680Z,5.50
2018-06-12T03:06:41.997Z,5.47
2018-06-12T03:09:10.279Z,5.63
2018-06-12T03:11:38.576Z,5.47
2018-06-12T03:14:06.540Z,6.43
2018-06-12T03:16:34.572Z,6.47
2018-06-12T03:19:02.902Z,6.63
2018-06-12T03:21:31.143Z,6.40
2018-06-12T03:23:59.440Z,6.53
2018-06-12T03:26:27.492Z,6.03
2018-06-12T03:28:55.787Z,6.43
2018-06-12T03:31:23.804Z,6.03
2018-06-12T03:33:52.047Z,6.63
2018-06-12T03:36:20.327Z,6.03
2018-06-12T03:38:48.617Z,6.43
2018-06-12T03:41:16.895Z,6.30
2018-06-12T03:43:45.180Z,5.93
2018-06-12T03:46:13.533Z,5.77
2018-06-12T03:48:41.783Z,6.77
2018-06-12T03:51:10.041Z,6.33
2018-06-12T03:53:38.313Z,6.17
2018-06-12T03:56:06.591Z,6.87
2018-06-12T03:58:34.895Z,6.10
2018-06-12T04:01:03.506Z,6.53
2018-06-12T04:03:31.767Z,7.03
2018-06-12T04:06:00.058Z,6.60
2018-06-12T04:08:28.380Z,6.63
2018-06-12T04:10:56.699Z,7.23
2018-06-12T04:13:24.968Z,7.47
2018-06-12T04:15:53.261Z,7.50
2018-06-12T04:18:21.532Z,6.93
2018-06-12T04:20:49.866Z,6.77
2018-06-12T04:23:18.165Z,7.10
2018-06-12T04:25:46.516Z,7.30
2018-06-12T04:28:14.788Z,7.20
2018-06-12T04:30:43.065Z,7.23
2018-06-12T04:33:11.389Z,7.13
2018-06-12T04:35:39.698Z,7.10
2018-06-12T04:38:08.037Z,7.17
2018-06-12T04:40:36.313Z,7.17
2018-06-12T04:43:04.612Z,7.00
2018-06-12T04:45:32.861Z,8.10
2018-06-12T04:48:00.915Z,7.00
2018-06-12T04:50:29.225Z,7.63
2018-06-12T04:52:57.517Z,7.07
2018-06-12T04:55:25.845Z,7.30
2018-06-12T04:57:54.124Z,8.03
2018-06-12T05:00:22.396Z,8.27
2018-06-12T05:02:50.714Z,6.93
2018-06-12T05:05:19.022Z,7.37
2018-06-12T05:07:47.323Z,8.10
2018-06-12T05:10:15.644Z,7.50
2018-06-12T05:12:43.949Z,7.17
2018-06-12T05:15:13.121Z,6.97
2018-06-12T05:17:41.397Z,7.47
2018-06-12T05:20:09.665Z,8.13
2018-06-12T05:22:37.933Z,6.93
2018-06-12T05:25:06.005Z,8.43
2018-06-12T05:27:34.341Z,7.60
2018-06-12T05:30:02.649Z,6.80
2018-06-12T05:32:30.946Z,7.57
2018-06-12T05:34:59.219Z,7.57
2018-06-12T05:37:27.595Z,8.13
2018-06-12T05:39:55.589Z,7.40
2018-06-12T05:42:23.874Z,7.70
2018-06-12T05:44:52.231Z,8.17
2018-06-12T05:47:20.885Z,8.07
2018-06-12T05:49:49.139Z,7.07
2018-06-12T05:52:17.394Z,7.17
2018-06-12T05:54:45.701Z,7.73
2018-06-12T05:57:14.101Z,6.43
2018-06-12T05:59:42.664Z,7.30
2018-06-12T06:02:10.935Z,6.93
2018-06-12T06:04:39.258Z,7.10
2018-06-12T06:07:07.558Z,7.97
2018-06-12T06:09:35.883Z,7.50
2018-06-12T06:12:04.177Z,7.40
2018-06-12T06:14:38.825Z,7.57
2018-06-12T06:17:07.103Z,7.27
2018-06-12T06:19:35.107Z,7.30
2018-06-12T06:22:04.224Z,7.53
2018-06-12T06:24:39.334Z,7.73
2018-06-12T06:27:07.612Z,7.37
2018-06-12T06:29:35.949Z,6.70
2018-06-12T06:32:04.028Z,7.30
2018-06-12T06:34:32.280Z,7.50
2018-06-12T06:37:00.564Z,6.90
2018-06-12T06:39:28.887Z,7.33
2018-06-12T06:41:57.209Z,7.37
2018-06-12T06:44:25.473Z,7.07
2018-06-12T06:46:53.793Z,6.63
2018-06-12T06:49:22.122Z,6.57
2018-06-12T06:51:50.423Z,6.43
2018-06-12T06:54:18.444Z,5.97
2018-06-12T06:56:46.755Z,6.93
2018-06-12T06:59:15.283Z,5.93
2018-06-12T07:01:43.542Z,6.93
2018-06-12T07:04:11.855Z,6.47
2018-06-12T07:06:40.132Z,6.10
2018-06-12T07:09:08.871Z,6.17
2018-06-12T07:11:37.132Z,6.27
2018-06-12T07:14:05.404Z,5.70
2018-06-12T07:16:33.717Z,5.97
2018-06-12T07:19:01.976Z,5.27
2018-06-12T07:21:29.951Z,5.80
2018-06-12T07:23:58.235Z,5.80
2018-06-12T07:26:26.487Z,5.83
2018-06-12T07:28:54.837Z,4.97
2018-06-12T07:31:23.113Z,5.30
2018-06-12T07:33:51.425Z,5.80
2018-06-12T07:36:19.533Z,4.87
2018-06-12T07:38:47.825Z,5.20
2018-06-12T07:41:16.090Z,4.83
2018-06-12T07:43:44.414Z,4.77
2018-06-12T07:46:12.704Z,4.80
2018-06-12T07:48:40.755Z,4.80
2018-06-12T07:51:09.052Z,4.93
2018-06-12T07:53:37.093Z,5.00
2018-06-12T07:56:05.477Z,5.17
2018-06-12T07:58:33.791Z,4.70
2018-06-12T08:01:02.223Z,4.80
2018-06-12T08:03:30.453Z,4.90
2018-06-12T08:05:58.727Z,4.60
2018-06-12T08:08:26.771Z,3.93
2018-06-12T08:10:55.065Z,4.53
2018-06-12T08:13:23.335Z,3.83
2018-06-12T08:15:51.347Z,4.23
2018-06-12T08:18:19.796Z,3.53
2018-06-12T08:20:48.063Z,3.33
2018-06-12T08:23:16.336Z,3.60
2018-06-12T08:25:44.602Z,4.03
2018-06-12T08:28:12.948Z,3.90
2018-06-12T08:30:41.260Z,3.70
2018-06-12T08:33:09.720Z,3.43
2018-06-12T08:35:38.022Z,3.73
2018-06-12T08:38:06.275Z,3.83
2018-06-12T08:40:34.564Z,4.37
2018-06-12T08:43:02.848Z,3.13
2018-06-12T08:45:31.116Z,3.27
2018-06-12T08:47:59.411Z,3.27
2018-06-12T08:50:27.464Z,3.40
2018-06-12T08:52:55.778Z,3.33
2018-06-12T08:55:24.048Z,3.33
2018-06-12T08:57:52.348Z,3.83
2018-06-12T09:00:20.621Z,3.20
2018-06-12T09:02:48.948Z,3.57
2018-06-12T09:05:17.255Z,3.20
2018-06-12T09:07:45.266Z,3.03
2018-06-12T09:10:13.528Z,3.13
2018-06-12T09:12:41.824Z,3.00
2018-06-12T09:15:16.532Z,3.40
2018-06-12T09:17:44.840Z,3.53
2018-06-12T09:20:13.184Z,3.17
2018-06-12T09:22:41.491Z,3.50
2018-06-12T09:25:09.829Z,3.30
2018-06-12T09:27:43.453Z,3.00
2018-06-12T09:30:11.731Z,3.03
2018-06-12T09:32:40.034Z,3.10
2018-06-12T09:35:08.351Z,3.57
2018-06-12T09:37:36.641Z,3.10
2018-06-12T09:40:05.031Z,3.17
2018-06-12T09:42:33.438Z,3.40
2018-06-12T09:45:01.773Z,3.17
2018-06-12T09:47:30.190Z,3.20
2018-06-12T09:49:58.487Z,2.90
2018-06-12T09:52:26.793Z,3.27
2018-06-12T09:54:55.660Z,3.10
2018-06-12T09:57:24.324Z,3.60
2018-06-12T09:59:52.919Z,3.50
2018-06-12T10:02:21.376Z,3.17
2018-06-12T10:04:49.695Z,3.10
2018-06-12T10:07:18.056Z,3.43
2018-06-12T10:09:46.373Z,2.93
2018-06-12T10:12:14.700Z,3.33
2018-06-12T10:14:42.956Z,3.57
2018-06-12T10:17:11.245Z,3.23
2018-06-12T10:19:39.534Z,3.20
2018-06-12T10:22:10.705Z,3.47
2018-06-12T10:24:38.701Z,3.33
2018-06-12T10:27:07.024Z,3.30
2018-06-12T10:29:36.398Z,3.50
2018-06-12T10:32:04.681Z,3.77
2018-06-12T10:34:33.925Z,3.40
2018-06-12T10:37:02.163Z,3.20
2018-06-12T10:39:30.475Z,3.40
2018-06-12T10:41:58.734Z,3.20
2018-06-12T10:44:26.987Z,3.27
2018-06-12T10:46:55.253Z,3.43
2018-06-12T10:49:23.549Z,4.40
2018-06-12T10:51:51.767Z,3.50
2018-06-12T10:54:19.771Z,3.63
2018-06-12T10:56:48.053Z,3.63
2018-06-12T10:59:16.733Z,4.23
2018-06-12T11:01:44.979Z,4.17
2018-06-12T11:04:13.321Z,4.03
2018-06-12T11:06:41.613Z,4.50
2018-06-12T11:09:09.882Z,4.60
2018-06-12T11:11:38.136Z,4.47
2018-06-12T11:14:06.423Z,4.73
2018-06-12T11:16:34.681Z,5.03
2018-06-12T11:19:03.047Z,5.00
2018-06-12T11:21:31.357Z,4.10
2018-06-12T11:23:59.647Z,4.53
2018-06-12T11:26:27.896Z,5.00
2018-06-12T11:28:56.148Z,5.10
2018-06-12T11:31:24.388Z,5.10
2018-06-12T11:33:52.668Z,5.17
2018-06-12T11:36:20.897Z,4.90
2018-06-12T11:38:49.192Z,4.93
2018-06-12T11:41:17.466Z,4.53
2018-06-12T11:43:45.748Z,5.40
2018-06-12T11:46:14.083Z,4.83
2018-06-12T11:48:42.334Z,4.93
2018-06-12T11:51:10.577Z,4.77
2018-06-12T11:53:38.876Z,5.43
2018-06-12T11:56:07.153Z,5.50
2018-06-12T11:58:35.184Z,5.03
2018-06-12T12:01:04.158Z,4.87
2018-06-12T12:03:32.454Z,5.00
2018-06-12T12:06:00.723Z,4.30
2018-06-12T12:08:28.996Z,5.00
2018-06-12T12:10:57.288Z,4.93
2018-06-12T12:13:25.529Z,5.17
2018-06-12T12:15:53.829Z,5.20
2018-06-12T12:18:22.088Z,4.53
2018-06-12T12:20:50.343Z,5.30
2018-06-12T12:23:19.561Z,5.30
2018-06-12T12:25:47.866Z,5.13
2018-06-12T12:28:16.151Z,5.60
2018-06-12T12:30:44.416Z,5.30
2018-06-12T12:33:12.731Z,5.60
2018-06-12T12:35:40.762Z,5.47
2018-06-12T12:38:09.043Z,5.57
2018-06-12T12:40:37.373Z,5.37
2018-06-12T12:43:05.703Z,5.60
2018-06-12T12:45:33.986Z,6.27
2018-06-12T12:48:02.293Z,5.67
2018-06-12T12:50:30.318Z,5.43
2018-06-12T12:52:58.588Z,5.97
2018-06-12T12:55:26.895Z,6.03
2018-06-12T12:57:55.213Z,5.63
2018-06-12T13:00:23.475Z,5.07
2018-06-12T13:02:51.549Z,5.57
2018-06-12T13:05:19.849Z,4.93
2018-06-12T13:07:48.111Z,5.00
2018-06-12T13:10:16.435Z,5.00
2018-06-12T13:12:44.729Z,4.67
2018-06-12T13:15:13.010Z,4.67
2018-06-12T13:17:41.319Z,5.63
2018-06-12T13:20:09.653Z,5.50
2018-06-12T13:22:37.925Z,5.30
2018-06-12T13:25:06.185Z,5.20
2018-06-12T13:27:34.454Z,4.80
2018-06-12T13:30:02.717Z,4.93
2018-06-12T13:32:30.995Z,5.03
2018-06-12T13:34:59.307Z,4.23
2018-06-12T13:37:27.659Z,5.10
2018-06-12T13:39:55.923Z,5.00
2018-06-12T13:42:24.200Z,4.60
2018-06-12T13:44:52.484Z,4.47
2018-06-12T13:47:20.758Z,4.47
2018-06-12T13:49:49.007Z,4.60
2018-06-12T13:52:17.294Z,4.97
2018-06-12T13:54:45.599Z,4.07
2018-06-12T13:57:13.904Z,5.00
2018-06-12T13:59:42.503Z,5.10
2018-06-12T14:02:11.644Z,4.70
2018-06-12T14:04:39.900Z,4.60
2018-06-12T14:07:08.207Z,4.60
2018-06-12T14:09:36.459Z,4.73
2018-06-12T14:12:04.749Z,5.07
2018-06-12T14:14:32.984Z,5.30
2018-06-12T14:17:01.227Z,5.30
2018-06-12T14:19:29.540Z,5.57
2018-06-12T14:21:57.807Z,5.60
2018-06-12T14:24:26.206Z,5.53
2018-06-12T14:26:54.456Z,6.00
2018-06-12T14:29:23.249Z,5.23
2018-06-12T14:31:51.608Z,6.73
2018-06-12T14:34:19.903Z,5.33
2018-06-12T14:36:48.192Z,6.73
2018-06-12T14:39:16.520Z,5.70
2018-06-12T14:41:44.814Z,6.03
2018-06-12T14:44:13.130Z,5.60
2018-06-12T14:46:41.128Z,6.20
2018-06-12T14:49:09.476Z,6.83
2018-06-12T14:51:37.539Z,7.13
2018-06-12T14:54:05.806Z,8.50
2018-06-12T14:56:34.076Z,8.63
2018-06-12T14:59:02.524Z,8.27
2018-06-12T15:01:30.741Z,9.07
2018-06-12T15:03:58.972Z,9.57
2018-06-12T15:06:27.347Z,10.47
2018-06-12T15:08:55.708Z,9.63
2018-06-12T15:11:24.082Z,9.33
2018-06-12T15:13:52.414Z,8.70
2018-06-12T15:16:20.700Z,8.43
2018-06-12T15:18:49.047Z,8.27
2018-06-12T15:21:17.329Z,8.60
2018-06-12T15:23:45.770Z,7.77
2018-06-12T15:26:14.095Z,7.57
2018-06-12T15:28:42.395Z,7.77
2018-06-12T15:31:10.796Z,7.77
2018-06-12T15:33:39.078Z,7.27
2018-06-12T15:36:07.384Z,7.03
2018-06-12T15:38:35.687Z,7.17
2018-06-12T15:41:03.976Z,6.70
2018-06-12T15:43:32.323Z,6.50
2018-06-12T15:46:00.592Z,5.83
2018-06-12T15:48:28.873Z,6.67
2018-06-12T15:50:57.157Z,5.17
2018-06-12T15:53:25.435Z,6.03
2018-06-12T15:55:53.931Z,6.07
2018-06-12T15:58:22.245Z,6.00
2018-06-12T16:00:50.694Z,6.07
2018-06-12T16:03:19.023Z,6.87
2018-06-12T16:05:47.350Z,6.20
2018-06-12T16:08:15.623Z,6.13
2018-06-12T16:10:43.904Z,6.50
2018-06-12T16:13:12.181Z,6.10
2018-06-12T16:15:40.459Z,7.20
2018-06-12T16:18:08.789Z,7.23
2018-06-12T16:20:37.160Z,7.37
2018-06-12T16:23:05.436Z,6.90
2018-06-12T16:25:33.871Z,6.33
2018-06-12T16:28:02.198Z,6.53
2018-06-12T16:30:30.456Z,6.07
2018-06-12T16:32:58.471Z,6.27
2018-06-12T16:35:26.743Z,5.87
2018-06-12T16:37:55.023Z,6.03
2018-06-12T16:40:23.320Z,5.77
2018-06-12T16:42:51.689Z,5.73
2018-06-12T16:45:19.989Z,5.93
2018-06-12T16:47:48.240Z,5.53
2018-06-12T16:50:16.511Z,6.10
2018-06-12T16:52:44.792Z,6.07
2018-06-12T16:55:13.101Z,5.50
2018-06-12T16:57:41.444Z,5.73
2018-06-12T17:00:09.824Z,6.07
2018-06-12T17:02:38.106Z,5.87
2018-06-12T17:05:06.465Z,5.47
2018-06-12T17:07:34.782Z,5.87
2018-06-12T17:10:03.045Z,6.10
2018-06-12T17:12:31.335Z,5.20
2018-06-12T17:14:59.668Z,6.30
2018-06-12T17:17:27.964Z,5.83
2018-06-12T17:19:56.274Z,5.77
2018-06-12T17:22:24.615Z,5.17
2018-06-12T17:24:52.918Z,5.83
2018-06-12T17:27:21.205Z,5.47
2018-06-12T17:29:49.912Z,4.97
2018-06-12T17:32:18.196Z,5.73
2018-06-12T17:34:46.467Z,5.60
2018-06-12T17:37:14.772Z,5.03
2018-06-12T17:39:43.053Z,5.10
2018-06-12T17:42:11.406Z,4.70
2018-06-12T17:44:39.713Z,5.50
2018-06-12T17:47:07.956Z,5.93
2018-06-12T17:49:36.230Z,5.37
2018-06-12T17:52:04.549Z,5.57
2018-06-12T17:54:32.815Z,5.17
2018-06-12T17:57:01.095Z,6.00
2018-06-12T17:59:30.535Z,4.93
2018-06-12T18:01:58.897Z,5.40
2018-06-12T18:04:27.191Z,5.47
2018-06-12T18:06:55.459Z,5.50
2018-06-12T18:09:23.752Z,5.10
2018-06-12T18:11:51.795Z,5.30
2018-06-12T18:14:20.055Z,5.20
2018-06-12T18:16:48.300Z,4.47
2018-06-12T18:19:16.623Z,4.70
2018-06-12T18:21:44.883Z,4.70
2018-06-12T18:24:13.152Z,4.50
2018-06-12T18:26:41.489Z,4.47
2018-06-12T18:29:09.787Z,4.57
2018-06-12T18:31:38.055Z,4.93
2018-06-12T18:34:06.148Z,4.97
2018-06-12T18:36:34.472Z,4.87
2018-06-12T18:39:02.748Z,4.67
2018-06-12T18:41:31.138Z,4.67
2018-06-12T18:43:59.447Z,4.80
2018-06-12T18:46:27.759Z,4.20
2018-06-12T18:48:56.040Z,4.20
2018-06-12T18:51:24.419Z,4.47
2018-06-12T18:53:59.368Z,4.73
2018-06-12T18:56:27.660Z,4.53
2018-06-12T18:58:55.922Z,4.57
2018-06-12T19:01:24.191Z,4.97
2018-06-12T19:03:52.619Z,4.43
2018-06-12T19:06:20.940Z,4.43
2018-06-12T19:08:49.197Z,4.10
2018-06-12T19:11:17.445Z,4.60
2018-06-12T19:13:45.734Z,4.27
2018-06-12T19:16:14.037Z,4.23
2018-06-12T19:18:42.302Z,4.97
2018-06-12T19:21:10.696Z,4.73
2018-06-12T19:23:39.007Z,4.47
2018-06-12T19:26:07.320Z,5.30
2018-06-12T19:28:35.659Z,4.80
2018-06-12T19:31:03.928Z,5.17
2018-06-12T19:33:32.228Z,4.83
2018-06-12T19:36:00.238Z,5.57
2018-06-12T19:38:28.576Z,5.13
2018-06-12T19:40:56.554Z,5.13
2018-06-12T19:43:24.585Z,5.17
2018-06-12T19:45:52.903Z,4.80
2018-06-12T19:48:21.198Z,4.57
2018-06-12T19:50:49.479Z,5.00
2018-06-12T19:53:17.760Z,5.00
2018-06-12T19:55:46.073Z,5.60
2018-06-12T19:58:14.392Z,4.90
2018-06-12T20:00:42.472Z,5.30
2018-06-12T20:03:10.732Z,5.07
2018-06-12T20:05:38.997Z,5.77
2018-06-12T20:08:07.523Z,5.47
2018-06-12T20:10:35.820Z,5.33
2018-06-12T20:13:04.191Z,5.53
2018-06-12T20:15:32.443Z,5.93
2018-06-12T20:18:00.897Z,5.77
2018-06-12T20:20:29.201Z,6.07
2018-06-12T20:22:57.474Z,5.23
2018-06-12T20:25:25.787Z,5.77
2018-06-12T20:27:54.064Z,5.57
2018-06-12T20:30:22.361Z,5.27
2018-06-12T20:32:50.625Z,5.30
2018-06-12T20:35:18.891Z,5.47
2018-06-12T20:37:47.192Z,5.87
2018-06-12T20:40:15.565Z,6.40
2018-06-12T20:42:43.880Z,5.87
2018-06-12T20:45:12.173Z,6.53
2018-06-12T20:47:40.492Z,5.47
2018-06-12T20:50:08.780Z,6.17
2018-06-12T20:52:37.028Z,5.90
2018-06-12T20:55:05.346Z,6.00
2018-06-12T20:57:33.656Z,6.37
2018-06-12T21:00:01.932Z,6.20
2018-06-12T21:02:30.260Z,6.57
2018-06-12T21:04:58.537Z,6.27
2018-06-12T21:07:26.835Z,6.10
2018-06-12T21:09:55.150Z,5.93
2018-06-12T21:12:23.471Z,5.80
2018-06-12T21:14:51.723Z,6.20
2018-06-12T21:17:19.977Z,5.90
2018-06-12T21:19:48.291Z,5.60
2018-06-12T21:22:16.560Z,5.73
2018-06-12T21:24:44.886Z,6.33
2018-06-12T21:27:13.216Z,6.80
2018-06-12T21:29:41.771Z,5.87
2018-06-12T21:32:10.067Z,5.90
2018-06-12T21:34:38.384Z,6.57
2018-06-12T21:37:06.685Z,6.37
2018-06-12T21:39:34.903Z,6.27
2018-06-12T21:42:03.167Z,7.67
2018-06-12T21:44:31.495Z,7.60
2018-06-12T21:46:59.512Z,7.17
2018-06-12T21:49:27.781Z,7.83
2018-06-12T21:51:56.099Z,8.00
2018-06-12T21:54:24.351Z,7.07
2018-06-12T21:56:52.662Z,7.20
2018-06-12T21:59:22.264Z,7.97
2018-06-12T22:01:50.532Z,7.23
2018-06-12T22:04:18.832Z,6.70
2018-06-12T22:06:47.164Z,6.93
2018-06-12T22:09:15.449Z,6.47
2018-06-12T22:11:43.795Z,7.67
2018-06-12T22:14:12.063Z,6.73
2018-06-12T22:16:40.317Z,7.33
2018-06-12T22:19:08.355Z,6.90
2018-06-12T22:21:36.649Z,7.07
2018-06-12T22:24:04.901Z,7.10
2018-06-12T22:26:33.163Z,7.13
2018-06-12T22:29:01.469Z,7.33
2018-06-12T22:31:29.772Z,7.43
2018-06-12T22:33:58.123Z,6.97
2018-06-12T22:36:26.409Z,6.47
2018-06-12T22:38:54.725Z,6.73
2018-06-12T22:41:23.060Z,6.80
2018-06-12T22:43:51.320Z,6.97
2018-06-12T22:46:19.601Z,6.87
2018-06-12T22:48:47.896Z,7.10
2018-06-12T22:51:16.171Z,6.07
2018-06-12T22:53:44.463Z,5.83
2018-06-12T22:56:12.491Z,5.67
2018-06-12T22:58:40.753Z,6.10
2018-06-12T23:01:09.027Z,5.47
2018-06-12T23:03:37.317Z,6.30
2018-06-12T23:06:05.627Z,5.47
2018-06-12T23:08:33.893Z,5.63
2018-06-12T23:11:02.144Z,5.40
2018-06-12T23:13:30.391Z,5.13
2018-06-12T23:15:59.392Z,4.93
2018-06-12T23:18:27.727Z,4.73
2018-06-12T23:22:05.208Z,4.63
2018-06-12T23:24:33.497Z,5.10
2018-06-12T23:27:01.832Z,4.57
2018-06-12T23:29:31.379Z,4.10
2018-06-12T23:31:59.696Z,4.37
2018-06-12T23:34:28.028Z,5.00
2018-06-12T23:36:56.287Z,4.17
2018-06-12T23:39:24.645Z,4.30
2018-06-12T23:41:52.640Z,5.17
2018-06-12T23:44:20.935Z,4.60
2018-06-12T23:46:49.260Z,4.07
2018-06-12T23:49:17.662Z,4.77
2018-06-12T23:51:46.020Z,4.77
2018-06-12T23:54:14.259Z,5.00
2018-06-12T23:56:42.551Z,3.67
2018-06-12T23:59:10.836Z,4.00
